Time;durP1;ratioP1;P1;durP2;ratioP2;P2;SDS_P1;SDS_P2;PMS_P1;PMS_P2;Temp;Humidity;BMP_temperature;BMP_pressure;BME280_temperature;BME280_humidity;BME280_pressure;Samples;Min_cycle;Max_cycle;Signal;HPM_P1;HPM_P2
2022/04/21 00:01:24;;;;;;;12.65;8.40;;;;;;;6.83;77.06;98571.05;1754518;81;20955;-41
2022/04/21 00:03:51;;;;;;;11.03;8.58;;;;;;;6.91;76.89;98567.39;1754270;81;20982;-41
2022/04/21 00:06:19;;;;;;;12.45;9.15;;;;;;;6.95;76.79;98574.41;1754555;81;21023;-41
2022/04/21 00:08:46;;;;;;;13.30;9.73;;;;;;;6.96;76.91;98565.20;1754524;81;20974;-41
2022/04/21 00:11:13;;;;;;;12.82;9.88;;;;;;;6.99;76.79;98565.05;1753441;81;21483;-42
2022/04/21 00:13:40;;;;;;;10.68;9.25;;;;;;;6.99;76.75;98563.70;1751736;82;21245;-42
2022/04/21 00:16:07;;;;;;;10.43;7.95;;;;;;;7.04;76.75;98560.72;1751772;81;20945;-42
2022/04/21 00:18:35;;;;;;;12.50;9.38;;;;;;;7.14;76.42;98556.67;1720996;83;22011;-41
2022/04/21 00:21:02;;;;;;;11.03;9.25;;;;;;;7.17;76.12;98562.69;1720851;83;21040;-42
2022/04/21 00:23:29;;;;;;;11.50;9.83;;;;;;;7.15;76.19;98557.67;1720898;83;21570;-41
2022/04/21 00:26:01;;;;;;;13.45;10.03;;;;;;;7.12;76.11;98559.72;1721036;83;21514;-42
2022/04/21 00:28:28;;;;;;;12.15;9.90;;;;;;;7.04;76.15;98554.55;1703011;84;21029;-41
2022/04/21 00:30:57;;;;;;;12.13;9.17;;;;;;;6.95;76.38;98552.86;1702978;84;20958;-41
2022/04/21 00:33:24;;;;;;;12.45;9.20;;;;;;;6.95;76.38;98552.86;1702893;84;21408;-42
2022/04/21 00:35:52;;;;;;;12.03;9.40;;;;;;;6.99;76.53;98550.22;1702671;84;21062;-42
2022/04/21 00:38:21;;;;;;;11.35;10.15;;;;;;;7.01;76.79;98553.36;1703031;84;20915;-41
2022/04/21 00:40:50;;;;;;;12.63;9.35;;;;;;;7.03;76.96;98551.07;1702771;84;21039;-41
2022/04/21 00:43:19;;;;;;;12.30;8.63;;;;;;;7.08;76.89;98551.34;1702856;84;21438;-41
2022/04/21 00:45:49;;;;;;;11.90;8.68;;;;;;;7.13;76.73;98548.38;1702500;84;20994;-42
2022/04/21 00:48:15;;;;;;;11.70;9.40;;;;;;;7.15;76.65;98550.94;1702866;84;21108;-42
2022/04/21 00:50:42;;;;;;;10.28;9.10;;;;;;;7.13;76.67;98547.80;1702528;84;23126;-42
2022/04/21 00:53:10;;;;;;;12.55;10.50;;;;;;;7.08;76.74;98545.39;1702674;84;20958;-42
2022/04/21 00:55:38;;;;;;;10.48;9.38;;;;;;;7.03;76.84;98544.33;1702633;84;20915;-41
2022/04/21 00:58:06;;;;;;;11.65;9.55;;;;;;;7.05;76.81;98543.98;1702546;84;21712;-42
2022/04/21 01:00:32;;;;;;;11.45;9.58;;;;;;;7.04;76.79;98539.16;1702646;84;21098;-41
2022/04/21 01:03:00;;;;;;;12.10;10.15;;;;;;;7.02;76.96;98541.42;1702518;84;21014;-41
2022/04/21 01:05:30;;;;;;;11.65;9.98;;;;;;;7.02;77.19;98539.32;1702532;84;20942;-42
2022/04/21 01:08:00;;;;;;;14.43;10.07;;;;;;;7.10;77.04;98535.05;1702720;84;21050;-41
2022/04/21 01:10:29;;;;;;;11.43;8.78;;;;;;;7.10;77.04;98535.05;1702320;84;21029;-42
2022/04/21 01:12:58;;;;;;;12.40;9.75;;;;;;;7.16;77.04;98529.59;1703034;84;21006;-42
2022/04/21 01:15:27;;;;;;;;;;;;;;;7.20;77.00;98527.73;1681680;84;20958;-42
2022/04/21 01:17:54;;;;;;;14.58;10.58;;;;;;;7.21;77.06;98526.58;1717045;83;21472;-42
2022/04/21 01:20:22;;;;;;;13.85;10.32;;;;;;;7.12;77.34;98524.67;1747088;82;20977;-42
2022/04/21 01:22:51;;;;;;;12.70;9.60;;;;;;;7.18;77.23;98519.78;1751570;82;21037;-41
2022/04/21 01:25:19;;;;;;;11.08;9.43;;;;;;;7.25;76.84;98519.36;1751600;82;20990;-42
2022/04/21 01:27:50;;;;;;;13.45;10.32;;;;;;;7.29;76.61;98520.20;1715512;83;21004;-41
2022/04/21 01:30:17;;;;;;;12.07;10.17;;;;;;;7.28;76.72;98515.94;1751811;82;21037;-41
2022/04/21 01:32:48;;;;;;;13.28;10.43;;;;;;;7.27;76.80;98513.02;1751341;82;21453;-41
2022/04/21 01:35:16;;;;;;;12.03;9.63;;;;;;;7.27;76.91;98518.41;1743906;82;21587;-41
2022/04/21 01:43:16;;;;;;;12.88;9.80;;;;;;;7.36;76.83;98516.27;1743129;82;21024;-41
2022/04/21 01:45:44;;;;;;;14.80;10.40;;;;;;;7.37;76.71;98511.66;1743270;82;20943;-42
2022/04/21 01:48:12;;;;;;;14.55;10.23;;;;;;;7.37;76.65;98514.35;1743432;82;20942;-42
2022/04/21 01:50:40;;;;;;;10.98;9.30;;;;;;;7.36;76.55;98512.78;1743418;82;21021;-42
2022/04/21 01:53:07;;;;;;;12.20;9.28;;;;;;;7.38;76.43;98514.00;1743124;82;21119;-41
2022/04/21 01:55:36;;;;;;;14.68;11.10;;;;;;;7.39;76.38;98515.57;1742978;82;21014;-42
2022/04/21 01:58:02;;;;;;;14.75;11.45;;;;;;;7.37;76.50;98521.87;1737974;82;21514;-42
2022/04/21 02:00:30;;;;;;;13.60;11.25;;;;;;;7.35;76.50;98510.69;1743150;82;21020;-41
2022/04/21 02:02:59;;;;;;;11.75;10.00;;;;;;;7.29;76.54;98509.98;1743111;82;21005;-42
2022/04/21 02:05:25;;;;;;;12.13;9.93;;;;;;;7.27;76.53;98509.55;1743280;82;21507;-42
2022/04/21 02:07:52;;;;;;;11.03;9.48;;;;;;;7.27;76.56;98507.63;1742908;82;21504;-42
2022/04/21 02:10:21;;;;;;;14.23;10.68;;;;;;;7.27;76.61;98511.67;1743270;82;20962;-42
2022/04/21 02:12:50;;;;;;;14.43;11.20;;;;;;;7.25;76.77;98510.48;1743509;82;20960;-41
2022/04/21 02:15:20;;;;;;;13.72;11.50;;;;;;;7.23;76.95;98507.36;1743197;82;20978;-42
2022/04/21 02:17:47;;;;;;;;;;;;;;;7.24;77.02;98511.05;1748320;82;21145;-42
2022/04/21 02:20:15;;;;;;;11.78;9.83;;;;;;;7.22;77.01;98509.27;1748839;82;20134;-41
2022/04/21 02:22:44;;;;;;;14.38;10.03;;;;;;;7.20;77.09;98506.73;1749260;81;21563;-41
2022/04/21 02:25:15;;;;;;;12.28;10.70;;;;;;;7.25;77.16;98506.45;1749177;82;21507;-41
2022/04/21 02:27:44;;;;;;;12.65;10.72;;;;;;;7.24;77.12;98504.31;1749265;82;21020;-42
2022/04/21 02:30:13;;;;;;;13.80;10.20;;;;;;;7.22;77.20;98505.23;1749648;82;21476;-41
2022/04/21 02:32:41;;;;;;;11.30;9.98;;;;;;;7.27;77.11;98505.50;1749190;81;21618;-41
2022/04/21 02:35:09;;;;;;;14.00;10.25;;;;;;;7.30;76.83;98503.45;1749002;81;21020;-42
2022/04/21 02:37:46;;;;;;;13.30;10.32;;;;;;;7.30;76.71;98503.45;1749236;82;21037;-42
2022/04/21 02:40:13;;;;;;;13.35;11.05;;;;;;;7.27;76.79;98500.89;1749107;82;21029;-41
2022/04/21 02:42:41;;;;;;;12.35;10.90;;;;;;;7.27;76.84;98506.28;1749143;82;21144;-42
2022/04/21 02:45:09;;;;;;;11.63;10.20;;;;;;;7.29;76.79;98500.55;1748978;82;21013;-42
2022/04/21 02:47:38;;;;;;;12.85;10.13;;;;;;;7.27;76.61;98501.45;1749489;82;20942;-42
2022/04/21 02:50:08;;;;;;;12.58;11.05;;;;;;;7.28;76.36;98498.41;1749171;82;22187;-41
2022/04/21 02:52:38;;;;;;;13.53;10.40;;;;;;;7.24;76.23;98501.63;1749255;82;21317;-41
2022/04/21 02:57:53;;;;;;;11.43;9.98;;;;;;;7.18;76.52;98499.00;1749199;82;21495;-42
2022/04/21 03:00:20;;;;;;;11.60;9.73;;;;;;;7.21;76.47;98496.92;1748936;82;21598;-41
2022/04/21 03:02:46;;;;;;;13.48;10.85;;;;;;;7.26;76.34;98496.63;1749186;82;20993;-41
2022/04/21 03:05:13;;;;;;;11.60;10.28;;;;;;;7.27;76.17;98495.50;1749088;82;21091;-41
2022/04/21 03:07:42;;;;;;;15.32;11.35;;;;;;;7.22;76.26;98496.36;1749090;82;21001;-41
2022/04/21 03:10:09;;;;;;;13.18;11.18;;;;;;;7.16;76.41;98499.16;1749008;82;21467;-41
2022/04/21 03:12:37;;;;;;;14.30;10.85;;;;;;;7.09;76.53;98494.97;1749572;82;21000;-41
2022/04/21 03:15:06;;;;;;;12.03;10.03;;;;;;;7.07;76.69;98499.36;1748978;82;21584;-42
2022/04/21 03:17:34;;;;;;;12.50;10.50;;;;;;;7.12;76.73;98497.73;1749072;81;21005;-42
2022/04/21 03:20:04;;;;;;;12.30;11.00;;;;;;;7.18;76.67;98496.30;1748981;82;21009;-42
2022/04/21 03:25:18;;;;;;;15.63;11.30;;;;;;;7.14;76.83;98496.81;1749379;82;21029;-41
2022/04/21 03:27:50;;;;;;;15.32;10.90;;;;;;;7.14;77.03;98495.47;1749557;82;20969;-42
2022/04/21 03:30:15;;;;;;;12.63;10.90;;;;;;;7.20;77.02;98498.65;1748978;81;21017;-42
2022/04/21 03:32:42;;;;;;;15.50;11.18;;;;;;;7.31;76.78;98502.33;1749026;82;21240;-42
2022/04/21 03:35:09;;;;;;;13.53;11.30;;;;;;;7.37;76.66;98502.22;1748972;82;21033;-41
2022/04/21 03:37:36;;;;;;;13.10;10.95;;;;;;;7.40;76.58;98500.17;1749059;82;21025;-41
2022/04/21 03:40:06;;;;;;;12.53;10.93;;;;;;;7.41;76.54;98502.48;1748929;82;21581;-42
2022/04/21 03:42:33;;;;;;;12.45;10.48;;;;;;;7.43;76.48;98502.14;1749240;82;21041;-42
2022/04/21 03:45:00;;;;;;;13.00;10.63;;;;;;;7.48;76.41;98497.02;1748980;82;21087;-41
2022/04/21 03:47:28;;;;;;;12.55;11.22;;;;;;;7.56;76.29;98506.78;1748981;82;20984;-41
2022/04/21 03:49:54;;;;;;;14.43;11.63;;;;;;;7.63;76.16;98498.81;1749083;82;20988;-41
2022/04/21 03:52:22;;;;;;;15.38;11.73;;;;;;;7.64;76.15;98505.21;1749089;82;21042;-41
2022/04/21 03:54:49;;;;;;;12.68;11.08;;;;;;;7.62;76.09;98502.65;1749292;82;21531;-41
2022/04/21 03:57:15;;;;;;;15.50;10.90;;;;;;;7.61;76.07;98496.47;1749031;82;22157;-42
2022/04/21 03:59:42;;;;;;;12.73;10.98;;;;;;;7.64;76.27;98489.59;1748983;82;21491;-41
2022/04/21 04:02:09;;;;;;;13.70;10.88;;;;;;;7.71;76.44;98497.22;1748930;82;20992;-41
2022/04/21 04:04:37;;;;;;;12.60;10.78;;;;;;;7.80;76.53;98496.96;1749088;82;20965;-41
2022/04/21 04:12:38;;;;;;;13.13;9.90;;;;;;;7.87;76.30;98495.73;1749119;82;20983;-41
2022/04/21 04:15:08;;;;;;;12.83;9.80;;;;;;;7.97;76.26;98497.83;1749472;82;20973;-42
2022/04/21 04:17:36;;;;;;;15.03;10.82;;;;;;;8.07;76.03;98498.55;1747827;81;21546;-42
2022/04/21 04:20:05;;;;;;;12.88;9.45;;;;;;;8.10;75.90;98497.81;1734940;82;21037;-42
2022/04/21 04:22:40;;;;;;;12.60;9.90;;;;;;;8.11;75.60;98501.30;1735095;82;21879;-41
2022/04/21 04:25:10;;;;;;;10.40;9.08;;;;;;;8.05;75.38;98505.45;1735049;82;21104;-42
2022/04/21 04:27:38;;;;;;;14.28;9.10;;;;;;;7.98;75.49;98509.40;1735082;82;20990;-42
2022/04/21 04:30:07;;;;;;;11.65;8.65;;;;;;;8.01;75.51;98501.34;1734891;82;22074;-41
2022/04/21 04:32:36;;;;;;;9.38;8.38;;;;;;;8.06;75.34;98506.44;1735055;82;20969;-42
2022/04/21 04:35:05;;;;;;;11.90;9.00;;;;;;;8.06;75.23;98505.66;1735023;82;21139;-41
2022/04/21 04:37:34;;;;;;;11.40;8.95;;;;;;;8.02;75.22;98500.78;1735231;82;21029;-42
2022/04/21 04:40:00;;;;;;;11.30;8.73;;;;;;;7.99;75.01;98499.57;1735429;82;21013;-41
2022/04/21 04:42:28;;;;;;;10.68;7.30;;;;;;;7.94;74.97;98502.58;1735252;82;20995;-42
2022/04/21 04:47:41;;;;;;;9.93;8.00;;;;;;;7.97;74.77;98499.17;1735248;82;21318;-42
2022/04/21 04:50:09;;;;;;;10.35;8.13;;;;;;;7.89;74.87;98503.48;1735084;82;21027;-42
2022/04/21 04:52:35;;;;;;;10.13;8.15;;;;;;;7.84;75.17;98503.22;1735248;82;21539;-42
2022/04/21 04:55:03;;;;;;;9.53;7.72;;;;;;;7.82;75.32;98506.84;1735068;82;21015;-42
2022/04/21 04:57:32;;;;;;;10.13;7.62;;;;;;;7.81;75.40;98509.32;1735275;82;20942;-43
2022/04/21 05:00:00;;;;;;;9.88;7.85;;;;;;;7.85;75.22;98505.53;1735188;82;21575;-42
2022/04/21 05:02:28;;;;;;;11.05;8.03;;;;;;;7.88;75.16;98510.02;1735016;82;20962;-42
2022/04/21 05:04:55;;;;;;;9.10;7.95;;;;;;;7.85;75.25;98515.55;1735160;82;20990;-42
2022/04/21 05:07:21;;;;;;;9.30;7.90;;;;;;;7.80;75.14;98509.11;1735218;82;21026;-42
2022/04/21 05:09:49;;;;;;;9.85;7.33;;;;;;;7.72;75.35;98515.53;1735147;82;21690;-42
2022/04/21 05:12:18;;;;;;;8.68;7.28;;;;;;;7.70;75.68;98519.93;1735077;82;21297;-41
2022/04/21 05:14:48;;;;;;;8.50;7.37;;;;;;;7.77;75.73;98525.45;1735080;82;21519;-42
2022/04/21 05:17:17;;;;;;;;;;;;;;;7.81;75.77;98518.77;1737765;82;20942;-42
2022/04/21 05:19:45;;;;;;;9.78;8.23;;;;;;;7.83;75.83;98520.55;1734991;81;20087;-41
2022/04/21 05:22:14;;;;;;;7.60;5.73;;;;;;;7.75;76.12;98522.33;1735235;82;21479;-41
2022/04/21 05:24:41;;;;;;;8.58;7.12;;;;;;;7.79;75.88;98521.06;1735029;82;21156;-41
2022/04/21 05:27:13;;;;;;;8.10;7.03;;;;;;;7.82;75.61;98516.28;1734933;82;20938;-41
2022/04/21 05:32:28;;;;;;;9.18;7.30;;;;;;;7.84;75.74;98517.47;1734917;82;21531;-42
2022/04/21 05:34:57;;;;;;;8.73;7.83;;;;;;;7.83;75.87;98513.80;1734979;82;21040;-41
2022/04/21 05:37:25;;;;;;;10.88;7.15;;;;;;;7.88;75.94;98514.84;1734875;82;21233;-41
2022/04/21 05:39:53;;;;;;;9.28;6.75;;;;;;;7.91;75.84;98518.72;1734890;82;21587;-41
2022/04/21 05:42:23;;;;;;;8.88;6.95;;;;;;;7.94;75.69;98517.42;1735299;82;21021;-41
2022/04/21 05:44:55;;;;;;;8.58;7.45;;;;;;;7.96;75.56;98516.50;1735083;82;20934;-41
2022/04/21 05:47:22;;;;;;;8.73;6.95;;;;;;;7.94;75.66;98520.13;1735131;82;21030;-42
2022/04/21 05:49:51;;;;;;;8.50;6.92;;;;;;;7.91;75.79;98516.80;1734896;82;21123;-42
2022/04/21 05:52:20;;;;;;;8.10;6.55;;;;;;;7.97;75.88;98514.59;1730134;82;21009;-42
2022/04/21 05:54:47;;;;;;;7.50;6.60;;;;;;;8.04;75.53;98517.38;1716952;82;21045;-41
2022/04/21 05:57:14;;;;;;;7.08;6.08;;;;;;;8.09;75.40;98517.85;1705649;84;21024;-42
2022/04/21 05:59:41;;;;;;;7.45;6.42;;;;;;;8.04;75.26;98520.86;1705665;84;21037;-41
2022/04/21 06:02:10;;;;;;;7.80;6.55;;;;;;;8.00;75.27;98518.68;1705509;84;23146;-41
2022/04/21 06:04:37;;;;;;;9.63;6.92;;;;;;;7.97;75.40;98519.41;1705602;84;20946;-41
2022/04/21 06:07:04;;;;;;;9.10;6.95;;;;;;;7.99;75.63;98523.86;1700797;84;21486;-42
2022/04/21 06:09:31;;;;;;;8.58;6.95;;;;;;;8.10;75.53;98524.81;1705698;84;21036;-41
2022/04/21 06:11:59;;;;;;;8.33;7.15;;;;;;;8.15;75.26;98523.72;1705562;83;20969;-42
2022/04/21 06:14:26;;;;;;;8.48;7.25;;;;;;;8.13;75.15;98526.03;1705642;84;20997;-42
2022/04/21 06:16:53;;;;;;;8.78;7.30;;;;;;;8.08;75.12;98529.81;1705539;84;21076;-42
2022/04/21 06:19:21;;;;;;;8.08;6.40;;;;;;;8.04;75.31;98531.66;1712454;83;21045;-42
2022/04/21 06:21:48;;;;;;;8.08;6.75;;;;;;;8.06;75.40;98532.09;1719131;83;21612;-42
2022/04/21 06:24:15;;;;;;;9.10;6.70;;;;;;;8.16;75.51;98533.39;1719323;83;21049;-42
2022/04/21 06:26:43;;;;;;;8.40;6.35;;;;;;;8.26;75.59;98528.16;1719209;83;23210;-42
2022/04/21 06:29:11;;;;;;;7.25;6.45;;;;;;;8.32;75.17;98530.57;1719265;83;21591;-42
2022/04/21 06:31:39;;;;;;;8.55;6.78;;;;;;;8.32;75.32;98529.22;1719371;83;20956;-42
2022/04/21 06:34:06;;;;;;;7.22;5.87;;;;;;;8.35;75.29;98535.23;1719203;83;21053;-42
2022/04/21 06:36:33;;;;;;;6.47;5.45;;;;;;;8.37;75.32;98535.66;1719386;83;21033;-42
2022/04/21 06:39:03;;;;;;;4.45;4.05;;;;;;;8.44;75.25;98537.87;1719702;83;21016;-42
2022/04/21 06:41:30;;;;;;;7.65;5.83;;;;;;;8.52;75.17;98543.57;1719343;82;21083;-42
2022/04/21 06:49:30;;;;;;;6.00;4.80;;;;;;;8.67;74.72;98541.84;1719269;83;20989;-41
2022/04/21 06:51:57;;;;;;;6.47;5.60;;;;;;;8.75;74.51;98543.51;1719077;83;23136;-42
2022/04/21 06:54:24;;;;;;;7.20;6.05;;;;;;;8.76;74.06;98547.00;1719135;83;20961;-42
2022/04/21 06:56:51;;;;;;;6.95;5.72;;;;;;;8.60;73.86;98545.25;1719123;83;21053;-42
2022/04/21 06:59:18;;;;;;;6.25;5.62;;;;;;;8.50;74.39;98545.09;1719174;82;21029;-42
2022/04/21 07:01:48;;;;;;;6.37;5.62;;;;;;;8.43;74.52;98550.38;1719420;82;21057;-42
2022/04/21 07:04:15;;;;;;;6.72;5.90;;;;;;;8.34;74.37;98555.27;1719244;82;21227;-42
2022/04/21 07:06:42;;;;;;;7.55;6.55;;;;;;;8.13;74.54;98549.72;1719100;82;20977;-42
2022/04/21 07:09:10;;;;;;;8.25;6.20;;;;;;;7.92;75.20;98554.80;1719264;82;20938;-42
2022/04/21 07:11:39;;;;;;;6.80;6.10;;;;;;;7.81;75.77;98547.09;1719269;82;21503;-42
2022/04/21 07:14:06;;;;;;;6.50;5.90;;;;;;;7.79;76.19;98555.55;1719405;82;21590;-42
2022/04/21 07:16:33;;;;;;;7.10;6.42;;;;;;;7.81;76.40;98557.89;1719156;82;21205;-42
2022/04/21 07:19:00;;;;;;;7.22;6.53;;;;;;;7.76;76.61;98555.48;1719072;82;20966;-42
2022/04/21 07:21:27;;;;;;;6.78;6.15;;;;;;;7.71;76.89;98554.44;1719141;83;21006;-42
2022/04/21 07:23:55;;;;;;;7.78;6.60;;;;;;;7.73;77.14;98554.87;1719140;82;20989;-42
2022/04/21 07:26:21;;;;;;;6.92;6.22;;;;;;;7.82;77.15;98549.44;1714690;82;21088;-42
2022/04/21 07:28:48;;;;;;;7.22;6.53;;;;;;;7.89;77.10;98557.45;1719260;83;21601;-42
2022/04/21 07:31:17;;;;;;;7.62;6.90;;;;;;;7.88;77.00;98562.07;1719241;82;20985;-42
2022/04/21 07:33:45;;;;;;;6.50;5.80;;;;;;;7.85;76.90;98561.42;1719224;82;20942;-42
2022/04/21 07:36:11;;;;;;;6.45;5.83;;;;;;;7.84;76.94;98561.23;1719193;83;20984;-42
2022/04/21 07:38:38;;;;;;;7.78;6.30;;;;;;;7.89;77.21;98562.25;1719229;83;21120;-42
2022/04/21 07:41:05;;;;;;;6.90;6.22;;;;;;;7.91;77.37;98565.95;1719202;83;21258;-42
2022/04/21 07:43:33;;;;;;;6.80;6.10;;;;;;;7.96;77.71;98569.70;1719107;83;21564;-42
2022/04/21 07:46:03;;;;;;;6.45;5.85;;;;;;;8.03;77.56;98562.52;1718923;83;20981;-41
2022/04/21 07:49:44;;;;;;;8.30;7.33;;;;;;;8.10;77.11;98565.30;1682199;85;21623;-42
2022/04/21 07:50:59;;;;;;;12.23;10.75;;;;;;;8.09;76.84;98573.76;1716816;83;21053;-42
2022/04/21 07:53:26;;;;;;;13.08;10.93;;;;;;;8.02;76.69;98573.66;1719273;83;21338;-42
2022/04/21 07:55:53;;;;;;;14.15;11.00;;;;;;;7.91;76.78;98570.00;1719098;83;20953;-42
2022/04/21 07:58:27;;;;;;;13.03;11.08;;;;;;;7.81;76.91;98573.52;1719270;82;20969;-42
2022/04/21 08:00:53;;;;;;;13.80;11.05;;;;;;;7.75;77.23;98575.51;1719188;83;21005;-42
2022/04/21 08:03:20;;;;;;;11.28;10.03;;;;;;;7.73;77.55;98577.80;1719284;83;21084;-42
2022/04/21 08:05:47;;;;;;;11.22;10.03;;;;;;;7.73;77.71;98579.94;1719213;83;21244;-42
2022/04/21 08:08:15;;;;;;;12.37;9.95;;;;;;;7.74;77.60;98591.51;1719313;83;21626;-42
2022/04/21 08:10:43;;;;;;;11.63;9.60;;;;;;;7.71;77.74;98582.77;1682390;85;21012;-42
2022/04/21 08:13:17;;;;;;;9.98;8.58;;;;;;;7.69;77.77;98585.84;1719477;83;21069;-41
2022/04/21 08:15:44;;;;;;;10.35;9.23;;;;;;;7.77;78.00;98593.48;1719584;83;21521;-42
2022/04/21 08:18:10;;;;;;;11.80;9.88;;;;;;;7.85;78.19;98591.89;1719354;82;21164;-42
2022/04/21 08:20:39;;;;;;;11.73;10.15;;;;;;;7.92;77.80;98588.54;1721018;83;20969;-42
2022/04/21 08:23:06;;;;;;;15.58;11.15;;;;;;;7.97;77.58;98590.16;1721657;83;21092;-42
2022/04/21 08:33:52;;;;;;;14.63;12.03;;;;;;;7.90;77.21;98599.47;1721627;83;21056;-42
2022/04/21 08:36:19;;;;;;;13.43;10.53;;;;;;;7.87;77.61;98603.68;1721534;83;21567;-42
2022/04/21 08:38:47;;;;;;;14.73;11.55;;;;;;;7.89;77.46;98599.28;1721619;82;20985;-42
2022/04/21 08:41:17;;;;;;;13.72;10.70;;;;;;;7.87;77.12;98607.73;1721671;83;21040;-42
2022/04/21 08:43:47;;;;;;;12.80;10.35;;;;;;;7.84;77.21;98601.71;1722126;83;21262;-41
2022/04/21 08:46:20;;;;;;;13.03;11.45;;;;;;;7.88;77.46;98607.95;1721500;83;22129;-42
2022/04/21 08:48:50;;;;;;;13.60;10.82;;;;;;;7.94;77.62;98608.43;1721673;82;21018;-41
2022/04/21 08:51:20;;;;;;;12.73;10.55;;;;;;;7.96;77.32;98609.62;1721800;83;20945;-41
2022/04/21 08:53:46;;;;;;;12.17;9.87;;;;;;;8.02;77.12;98608.19;1722143;83;21594;-41
2022/04/21 08:56:13;;;;;;;10.53;9.20;;;;;;;8.10;77.18;98611.20;1721473;83;21307;-41
2022/04/21 08:58:39;;;;;;;10.20;9.10;;;;;;;8.17;77.22;98614.03;1686509;85;21036;-41
2022/04/21 09:01:07;;;;;;;10.58;8.85;;;;;;;8.27;76.92;98608.02;1716704;82;21041;-42
2022/04/21 09:03:36;;;;;;;12.23;9.80;;;;;;;8.36;76.70;98611.06;1703418;83;21617;-42
2022/04/21 09:06:04;;;;;;;12.82;10.50;;;;;;;8.44;76.76;98606.75;1721591;83;20937;-42
2022/04/21 09:08:34;;;;;;;11.30;9.93;;;;;;;8.51;76.42;98614.98;1721557;83;21131;-42
2022/04/21 09:11:07;;;;;;;;;;;;;;;8.51;75.18;98617.67;1723980;82;21538;-42
2022/04/21 09:13:38;;;;;;;13.53;10.98;;;;;;;8.45;75.06;98621.82;1721444;83;20642;-42
2022/04/21 09:16:08;;;;;;;14.53;11.25;;;;;;;8.31;75.31;98618.91;1721923;83;20990;-42
2022/04/21 09:18:42;;;;;;;13.90;11.12;;;;;;;8.27;75.59;98620.74;1721447;83;21499;-42
2022/04/21 09:21:14;;;;;;;13.38;10.82;;;;;;;8.25;75.50;98621.66;1721080;83;21433;-42
2022/04/21 09:23:46;;;;;;;14.98;11.08;;;;;;;8.23;75.55;98623.93;1721363;83;20949;-42
2022/04/21 09:26:21;;;;;;;12.58;10.20;;;;;;;8.23;75.87;98627.41;1716968;83;21045;-42
2022/04/21 09:28:58;;;;;;;12.88;10.80;;;;;;;8.22;75.65;98620.48;1721506;82;20981;-42
2022/04/21 09:31:26;;;;;;;13.83;11.38;;;;;;;8.22;75.54;98624.53;1721513;83;21017;-42
2022/04/21 09:33:54;;;;;;;13.95;11.40;;;;;;;8.22;75.42;98627.80;1721463;83;21212;-42
2022/04/21 09:36:22;;;;;;;13.13;10.85;;;;;;;8.21;75.06;98629.71;1680205;83;21489;-42
2022/04/21 09:38:59;;;;;;;13.45;10.63;;;;;;;8.17;74.19;98624.83;1703007;83;20981;-42
2022/04/21 09:41:30;;;;;;;13.70;10.68;;;;;;;8.14;74.48;98628.80;1721419;83;21034;-42
2022/04/21 09:46:56;;;;;;;12.70;10.65;;;;;;;8.18;75.31;98637.77;1721445;83;21147;-42
2022/04/21 09:49:39;;;;;;;12.85;10.68;;;;;;;8.25;75.04;98635.95;1721455;83;21551;-42
2022/04/21 09:52:06;;;;;;;14.10;11.30;;;;;;;8.29;74.52;98642.75;1721256;83;20977;-42
2022/04/21 09:54:36;;;;;;;15.13;11.75;;;;;;;8.28;74.46;98640.61;1721510;83;21283;-42
2022/04/21 09:57:05;;;;;;;23.22;16.48;;;;;;;8.29;74.50;98644.91;1721317;83;21088;-41
2022/04/21 09:59:35;;;;;;;22.37;17.23;;;;;;;8.27;74.50;98647.18;1721508;83;21261;-42
2022/04/21 10:02:04;;;;;;;26.17;18.25;;;;;;;8.19;74.35;98641.43;1721323;83;20938;-42
2022/04/21 10:04:30;;;;;;;22.27;17.52;;;;;;;8.08;74.06;98654.56;1721693;83;20977;-42
2022/04/21 10:06:58;;;;;;;24.77;17.67;;;;;;;7.98;74.72;98653.80;1721373;83;21092;-42
2022/04/21 10:09:25;;;;;;;24.12;18.80;;;;;;;7.91;74.96;98653.09;1721620;83;21056;-42
2022/04/21 10:11:53;;;;;;;24.32;19.77;;;;;;;7.85;75.00;98654.52;1721377;83;20923;-42
2022/04/21 10:14:20;;;;;;;25.57;19.50;;;;;;;7.77;74.94;98658.23;1721538;83;21608;-42
2022/04/21 10:16:48;;;;;;;26.02;20.30;;;;;;;7.68;75.31;98657.12;1721569;83;21503;-42
2022/04/21 10:19:19;;;;;;;23.15;18.85;;;;;;;7.66;75.43;98665.34;1721425;83;21001;-42
2022/04/21 10:21:55;;;;;;;24.00;17.70;;;;;;;7.67;75.81;98677.70;1721343;83;21567;-42
2022/04/21 10:24:24;;;;;;;24.07;18.37;;;;;;;7.68;75.99;98668.47;1721355;83;21511;-42
2022/04/21 10:26:53;;;;;;;21.05;16.27;;;;;;;7.69;76.22;98671.39;1721456;83;21013;-42
2022/04/21 10:29:23;;;;;;;20.55;16.37;;;;;;;7.63;75.91;98665.50;1721423;83;21468;-42
2022/04/21 10:32:01;;;;;;;25.50;17.12;;;;;;;7.65;76.02;98671.89;1721435;83;20973;-42
2022/04/21 10:35:46;;;;;;;19.87;14.85;;;;;;;7.70;75.88;98676.41;1779868;79;21874;-41
2022/04/21 10:38:20;;;;;;;21.90;15.63;;;;;;;7.61;75.88;98675.06;1739072;82;20989;-42
2022/04/21 10:41:06;;;;;;;18.05;13.88;;;;;;;7.61;75.74;98686.64;1739164;82;22128;-42
2022/04/21 10:43:56;;;;;;;17.40;13.78;;;;;;;7.63;75.92;98692.48;1739038;82;21021;-42
2022/04/21 10:46:33;;;;;;;22.48;17.00;;;;;;;7.68;76.04;98694.11;1739051;82;20892;-42
2022/04/21 10:48:58;;;;;;;20.27;15.43;;;;;;;7.73;75.56;98697.30;1738944;82;20997;-42
2022/04/21 10:57:33;;;;;;;21.12;16.40;;;;;;;7.66;75.51;98695.02;1737606;82;20986;-42
2022/04/21 11:00:08;;;;;;;25.55;18.02;;;;;;;7.65;76.09;98704.27;1738990;82;20935;-42
2022/04/21 11:02:45;;;;;;;22.37;17.23;;;;;;;7.66;76.02;98705.23;1739115;82;21367;-42
2022/04/21 11:05:39;;;;;;;21.62;15.50;;;;;;;7.63;75.86;98707.88;1739304;82;21080;-42
2022/04/21 11:08:14;;;;;;;19.35;15.23;;;;;;;7.61;76.09;98710.13;1739196;82;21112;-42
2022/04/21 11:10:45;;;;;;;22.40;15.78;;;;;;;7.61;75.89;98712.83;1739423;82;20987;-42
2022/04/21 11:13:18;;;;;;;22.00;16.15;;;;;;;7.60;76.07;98712.64;1739167;82;21559;-42
2022/04/21 11:15:54;;;;;;;17.90;14.70;;;;;;;7.60;76.25;98709.95;1739227;82;21062;-41
2022/04/21 11:18:33;;;;;;;18.02;14.95;;;;;;;7.63;76.21;98713.27;1739348;82;21021;-42
2022/04/21 11:21:27;;;;;;;19.37;15.32;;;;;;;7.68;76.08;98721.87;1739625;82;21720;-42
2022/04/21 11:24:01;;;;;;;18.75;15.40;;;;;;;7.71;76.03;98722.49;1734115;82;21002;-42
2022/04/21 11:26:29;;;;;;;21.33;15.58;;;;;;;7.71;75.91;98721.70;1739357;82;20959;-42
2022/04/21 11:29:02;;;;;;;20.27;15.90;;;;;;;7.69;75.76;98722.65;1739135;82;21027;-42
2022/04/21 11:31:29;;;;;;;21.30;15.78;;;;;;;7.66;75.66;98723.34;1739302;82;21053;-42
2022/04/21 11:34:04;;;;;;;18.87;15.15;;;;;;;7.59;75.98;98717.81;1737347;81;21154;-42
2022/04/21 11:36:37;;;;;;;21.17;16.12;;;;;;;7.54;76.09;98718.10;1728543;83;20982;-42
2022/04/21 11:39:08;;;;;;;20.55;15.28;;;;;;;7.51;76.67;98718.79;1728838;83;20974;-42
2022/04/21 11:41:44;;;;;;;21.80;15.53;;;;;;;7.51;76.68;98721.48;1745823;80;20965;-42
2022/04/21 11:44:11;;;;;;;19.15;14.87;;;;;;;7.49;76.73;98721.86;1714415;83;21551;-42
2022/04/21 11:46:39;;;;;;;18.50;14.23;;;;;;;7.52;76.63;98723.05;1739149;81;21081;-42
2022/04/21 11:49:08;;;;;;;18.87;14.58;;;;;;;7.55;76.73;98725.06;1737149;82;20985;-42
2022/04/21 11:51:36;;;;;;;17.48;13.98;;;;;;;7.56;76.84;98728.73;1737728;82;21029;-42
2022/04/21 11:54:04;;;;;;;17.20;13.35;;;;;;;7.59;76.81;98738.05;1737353;82;20913;-42
2022/04/21 11:56:32;;;;;;;;;;;;;;;7.62;76.58;98733.28;1739990;82;21009;-41
2022/04/21 11:59:08;;;;;;;17.00;13.03;;;;;;;7.68;76.39;98727.83;1737310;82;21080;-42
2022/04/21 12:07:17;;;;;;;15.05;12.45;;;;;;;7.83;75.70;98741.81;1737631;82;21093;-42
2022/04/21 12:09:46;;;;;;;14.93;12.28;;;;;;;7.86;75.64;98744.58;1737398;82;21115;-42
2022/04/21 12:12:15;;;;;;;13.22;11.83;;;;;;;7.91;75.65;98746.20;1737306;82;23115;-42
2022/04/21 12:14:43;;;;;;;12.93;10.80;;;;;;;7.99;75.65;98741.14;1737276;82;20954;-42
2022/04/21 12:17:12;;;;;;;12.37;10.80;;;;;;;8.07;75.22;98742.86;1737313;82;20986;-42
2022/04/21 12:19:42;;;;;;;12.20;10.40;;;;;;;8.16;75.21;98738.58;1737361;82;21539;-42
2022/04/21 12:22:16;;;;;;;10.85;9.28;;;;;;;8.25;74.77;98737.20;1737308;82;21080;-42
2022/04/21 12:24:55;;;;;;;12.15;10.10;;;;;;;8.32;74.16;98734.46;1737486;82;20958;-42
2022/04/21 12:27:34;;;;;;;14.07;10.53;;;;;;;8.36;73.74;98742.83;1737495;82;21566;-42
2022/04/21 12:30:04;;;;;;;12.90;10.78;;;;;;;8.37;73.54;98740.91;1737213;82;21543;-41
2022/04/21 12:32:33;;;;;;;13.18;10.48;;;;;;;8.35;73.59;98741.27;1737466;82;20985;-42